Current Weather

Porter County Rgnl

Valparaiso, Indiana (KVPZ)

Report from: Wednesday, September 28, 2022 3:29 AM CDT
Current time: Wednesday, September 28, 2022 4:04 AM CDT

Nearby weather
Weather history
Weather forecast

Present weatherRain, mist
Temperature10.0°C (50.0°F)
Wind chill9.1°C (48.5°F)
Dew point8.9°C (48.0°F)
Winds 4 kts (2.1 m/s, 4.6 mph) East (80°)
Visibility3 mi. (4.8 km)
Clouds Scattered clouds 600 ft. (183 m)
Ceiling: Broken clouds 1,100 ft. (335 m)
Overcast 1,700 ft. (518 m)
Altimeter30.30 in.Hg (1026 mB)
Precipitiation0.05 in. (1 mm)
Relative humidity93 %
Density altitude-869 ft. (-265 m)
Remarks Fully automated report
System requires maintenance
Automated weather observing station with precipitation discriminator
Flight conditions Marginal Visual Meteorological Conditions
Raw dataKVPZ 280829Z AUTO 08004KT 3SM RA BR SCT006 BKN011 OVC017 10/09 A3030 RMK AO2 P0005 T01000089 $
An error has occurred. This application may no longer respond until reloaded. Reload 🗙